<?xml version='1.0' encoding='UTF-8'?><gpx version="1.1" creator="JPX - https://github.com/jenetics/jpx" xmlns="http://www.topografix.com/GPX/1/1"><trk><trkseg><trkpt lat="43.4604433" lon="11.81227"><ele>255.99999999999997</ele><time>2026-05-01T06:37:05.787Z</time></trkpt><trkpt lat="43.4603733" lon="11.8124233"><ele>256.0</ele><time>2026-05-01T06:37:07.788Z</time></trkpt><trkpt lat="43.4603367" lon="11.8125067"><ele>256.0</ele><time>2026-05-01T06:37:08.789Z</time></trkpt><trkpt lat="43.4603" lon="11.8125983"><ele>256.0</ele><time>2026-05-01T06:37:09.79Z</time></trkpt><trkpt lat="43.460265" lon="11.8126967"><ele>255.99999999999997</ele><time>2026-05-01T06:37:10.788Z</time></trkpt><trkpt lat="43.46023" lon="11.8127883"><ele>256.0</ele><time>2026-05-01T06:37:11.786Z</time></trkpt><trkpt lat="43.4601967" lon="11.8128717"><ele>256.6</ele><time>2026-05-01T06:37:12.788Z</time></trkpt><trkpt lat="43.460175" lon="11.8130283"><ele>257.20000000000005</ele><time>2026-05-01T06:37:14.785Z</time></trkpt><trkpt lat="43.46024" lon="11.8131583"><ele>257.79999999999995</ele><time>2026-05-01T06:37:16.787Z</time></trkpt><trkpt lat="43.4603133" lon="11.813215"><ele>258.4</ele><time>2026-05-01T06:37:17.786Z</time></trkpt><trkpt lat="43.4603633" lon="11.8132783"><ele>259.0</ele><time>2026-05-01T06:37:18.786Z</time></trkpt><trkpt lat="43.4604033" lon="11.8134067"><ele>259.2</ele><time>2026-05-01T06:37:20.785Z</time></trkpt><trkpt lat="43.46035" lon="11.8135633"><ele>259.4</ele><time>2026-05-01T06:37:22.786Z</time></trkpt><trkpt lat="43.4603" lon="11.8136617"><ele>259.6</ele><time>2026-05-01T06:37:23.787Z</time></trkpt><trkpt lat="43.4602433" lon="11.8137733"><ele>259.8</ele><time>2026-05-01T06:37:24.789Z</time></trkpt><trkpt lat="43.460165" lon="11.8139083"><ele>260.0</ele><time>2026-05-01T06:37:25.789Z</time></trkpt><trkpt lat="43.4600917" lon="11.8140517"><ele>260.0</ele><time>2026-05-01T06:37:26.794Z</time></trkpt><trkpt lat="43.4600167" lon="11.8142033"><ele>260.0</ele><time>2026-05-01T06:37:27.785Z</time></trkpt><trkpt lat="43.4599517" lon="11.8143667"><ele>260.0</ele><time>2026-05-01T06:37:28.786Z</time></trkpt><trkpt lat="43.4598883" lon="11.8145467"><ele>260.0</ele><time>2026-05-01T06:37:29.786Z</time></trkpt><trkpt lat="43.4598417" lon="11.8147383"><ele>260.25</ele><time>2026-05-01T06:37:30.786Z</time></trkpt><trkpt lat="43.4598033" lon="11.814935"><ele>260.5</ele><time>2026-05-01T06:37:31.786Z</time></trkpt><trkpt lat="43.4597783" lon="11.8151367"><ele>260.75</ele><time>2026-05-01T06:37:32.787Z</time></trkpt><trkpt lat="43.4597833" lon="11.8153433"><ele>261.0</ele><time>2026-05-01T06:37:33.793Z</time></trkpt><trkpt lat="43.45982" lon="11.815545"><ele>259.6666666666667</ele><time>2026-05-01T06:37:34.787Z</time></trkpt><trkpt lat="43.4598783" lon="11.815735"><ele>258.33333333333337</ele><time>2026-05-01T06:37:35.786Z</time></trkpt><trkpt lat="43.4599583" lon="11.8159183"><ele>257.0</ele><time>2026-05-01T06:37:36.787Z</time></trkpt><trkpt lat="43.4600567" lon="11.81609"><ele>254.66666666666669</ele><time>2026-05-01T06:37:37.789Z</time></trkpt><trkpt lat="43.460165" lon="11.816255"><ele>252.33333333333331</ele><time>2026-05-01T06:37:38.789Z</time></trkpt><trkpt lat="43.4602783" lon="11.8164083"><ele>250.0</ele><time>2026-05-01T06:37:39.786Z</time></trkpt><trkpt lat="43.460395" lon="11.8165417"><ele>250.75</ele><time>2026-05-01T06:37:40.786Z</time></trkpt><trkpt lat="43.4605117" lon="11.8166567"><ele>251.5</ele><time>2026-05-01T06:37:41.787Z</time></trkpt><trkpt lat="43.4606217" lon="11.8167533"><ele>252.25</ele><time>2026-05-01T06:37:42.785Z</time></trkpt><trkpt lat="43.4607217" lon="11.816825"><ele>253.0</ele><time>2026-05-01T06:37:43.787Z</time></trkpt><trkpt lat="43.460805" lon="11.816885"><ele>251.83333333333331</ele><time>2026-05-01T06:37:44.785Z</time></trkpt><trkpt lat="43.46087" lon="11.81695"><ele>250.66666666666666</ele><time>2026-05-01T06:37:45.787Z</time></trkpt><trkpt lat="43.46092" lon="11.8170367"><ele>249.5</ele><time>2026-05-01T06:37:46.786Z</time></trkpt><trkpt lat="43.4609467" lon="11.8171533"><ele>248.33333333333331</ele><time>2026-05-01T06:37:47.789Z</time></trkpt><trkpt lat="43.4609517" lon="11.8172867"><ele>247.16666666666666</ele><time>2026-05-01T06:37:48.785Z</time></trkpt><trkpt lat="43.4609517" lon="11.8174233"><ele>246.0</ele><time>2026-05-01T06:37:49.787Z</time></trkpt><trkpt lat="43.460905" lon="11.8176267"><ele>245.75</ele><time>2026-05-01T06:37:50.786Z</time></trkpt><trkpt lat="43.460865" lon="11.8178233"><ele>245.5</ele><time>2026-05-01T06:37:51.786Z</time></trkpt><trkpt lat="43.4608317" lon="11.8180083"><ele>245.25</ele><time>2026-05-01T06:37:52.789Z</time></trkpt><trkpt lat="43.4608233" lon="11.81818"><ele>245.0</ele><time>2026-05-01T06:37:53.786Z</time></trkpt><trkpt lat="43.46085" lon="11.8183333"><ele>245.0</ele><time>2026-05-01T06:37:54.789Z</time></trkpt><trkpt lat="43.460915" lon="11.818465"><ele>245.0</ele><time>2026-05-01T06:37:55.787Z</time></trkpt><trkpt lat="43.4610183" lon="11.8185717"><ele>245.0</ele><time>2026-05-01T06:37:56.786Z</time></trkpt><trkpt lat="43.4611333" lon="11.8186583"><ele>245.0</ele><time>2026-05-01T06:37:57.786Z</time></trkpt><trkpt lat="43.4612367" lon="11.81872"><ele>245.00000000000003</ele><time>2026-05-01T06:37:58.786Z</time></trkpt><trkpt lat="43.4613167" lon="11.8187733"><ele>245.0</ele><time>2026-05-01T06:37:59.787Z</time></trkpt><trkpt lat="43.461385" lon="11.8188383"><ele>245.0</ele><time>2026-05-01T06:38:00.785Z</time></trkpt><trkpt lat="43.4614283" lon="11.818935"><ele>245.0</ele><time>2026-05-01T06:38:01.787Z</time></trkpt><trkpt lat="43.46142" lon="11.81903"><ele>245.00000000000003</ele><time>2026-05-01T06:38:02.787Z</time></trkpt><trkpt lat="43.4613633" lon="11.8191283"><ele>245.0</ele><time>2026-05-01T06:38:03.786Z</time></trkpt><trkpt lat="43.4612433" lon="11.8192433"><ele>244.0</ele><time>2026-05-01T06:38:04.786Z</time></trkpt><trkpt lat="43.4611683" lon="11.8193983"><ele>243.0</ele><time>2026-05-01T06:38:05.787Z</time></trkpt><trkpt lat="43.4611183" lon="11.81958"><ele>242.0</ele><time>2026-05-01T06:38:06.788Z</time></trkpt><trkpt lat="43.46106" lon="11.8197733"><ele>241.0</ele><time>2026-05-01T06:38:07.788Z</time></trkpt><trkpt lat="43.460705" lon="11.8206467"><ele>239.0</ele><time>2026-05-01T06:38:11.786Z</time></trkpt><trkpt lat="43.460635" lon="11.8208483"><ele>239.0</ele><time>2026-05-01T06:38:12.786Z</time></trkpt></trkseg><trkseg><trkpt lat="43.4632545" lon="11.8536788"><ele>248.0</ele><time>2026-05-01T06:40:12.179Z</time></trkpt><trkpt lat="43.4634683" lon="11.854115"><ele>248.0</ele><time>2026-05-01T06:40:15.118Z</time></trkpt><trkpt lat="43.46351" lon="11.8545417"><ele>248.5</ele><time>2026-05-01T06:40:16.787Z</time></trkpt><trkpt lat="43.463525" lon="11.8548717"><ele>249.0</ele><time>2026-05-01T06:40:18.107Z</time></trkpt><trkpt lat="43.4635817" lon="11.8552567"><ele>249.66666666666669</ele><time>2026-05-01T06:40:19.788Z</time></trkpt><trkpt lat="43.4636283" lon="11.8554933"><ele>250.33333333333334</ele><time>2026-05-01T06:40:20.787Z</time></trkpt><trkpt lat="43.4636533" lon="11.8557433"><ele>251.0</ele><time>2026-05-01T06:40:21.786Z</time></trkpt><trkpt lat="43.46367" lon="11.8559917"><ele>251.66666666666669</ele><time>2026-05-01T06:40:22.787Z</time></trkpt><trkpt lat="43.4636767" lon="11.8562433"><ele>252.33333333333331</ele><time>2026-05-01T06:40:23.786Z</time></trkpt><trkpt lat="43.4637133" lon="11.8565033"><ele>253.0</ele><time>2026-05-01T06:40:24.786Z</time></trkpt><trkpt lat="43.46372" lon="11.8567483"><ele>252.25</ele><time>2026-05-01T06:40:25.787Z</time></trkpt><trkpt lat="43.4637383" lon="11.8569767"><ele>251.5</ele><time>2026-05-01T06:40:26.786Z</time></trkpt><trkpt lat="43.4637383" lon="11.8572033"><ele>250.75</ele><time>2026-05-01T06:40:27.786Z</time></trkpt><trkpt lat="43.46376" lon="11.8573633"><ele>250.0</ele><time>2026-05-01T06:40:28.786Z</time></trkpt><trkpt lat="43.4637833" lon="11.8575167"><ele>250.0</ele><time>2026-05-01T06:40:29.787Z</time></trkpt><trkpt lat="43.4638033" lon="11.8577067"><ele>250.0</ele><time>2026-05-01T06:40:30.787Z</time></trkpt><trkpt lat="43.463815" lon="11.8578983"><ele>250.0</ele><time>2026-05-01T06:40:31.787Z</time></trkpt><trkpt lat="43.4638233" lon="11.8580867"><ele>250.0</ele><time>2026-05-01T06:40:32.788Z</time></trkpt><trkpt lat="43.46383" lon="11.8582817"><ele>250.0</ele><time>2026-05-01T06:40:33.786Z</time></trkpt><trkpt lat="43.4639133" lon="11.858385"><ele>250.0</ele><time>2026-05-01T06:40:35.333Z</time></trkpt><trkpt lat="43.46393" lon="11.8587733"><ele>250.0</ele><time>2026-05-01T06:40:36.788Z</time></trkpt><trkpt lat="43.4639083" lon="11.8589883"><ele>249.75</ele><time>2026-05-01T06:40:37.787Z</time></trkpt><trkpt lat="43.4639183" lon="11.85918"><ele>249.5</ele><time>2026-05-01T06:40:38.789Z</time></trkpt><trkpt lat="43.4639317" lon="11.8593783"><ele>249.25</ele><time>2026-05-01T06:40:39.788Z</time></trkpt><trkpt lat="43.463955" lon="11.85957"><ele>249.0</ele><time>2026-05-01T06:40:40.787Z</time></trkpt><trkpt lat="43.4639867" lon="11.85976"><ele>249.0</ele><time>2026-05-01T06:40:41.786Z</time></trkpt><trkpt lat="43.464015" lon="11.85995"><ele>249.0</ele><time>2026-05-01T06:40:42.786Z</time></trkpt><trkpt lat="43.4640383" lon="11.860145"><ele>249.0</ele><time>2026-05-01T06:40:43.786Z</time></trkpt><trkpt lat="43.46406" lon="11.8603383"><ele>249.0</ele><time>2026-05-01T06:40:44.787Z</time></trkpt><trkpt lat="43.4640767" lon="11.860535"><ele>249.0</ele><time>2026-05-01T06:40:45.787Z</time></trkpt><trkpt lat="43.46409" lon="11.86073"><ele>249.0</ele><time>2026-05-01T06:40:46.786Z</time></trkpt><trkpt lat="43.4641017" lon="11.8609233"><ele>249.0</ele><time>2026-05-01T06:40:47.786Z</time></trkpt><trkpt lat="43.46412" lon="11.8611283"><ele>249.0</ele><time>2026-05-01T06:40:48.787Z</time></trkpt><trkpt lat="43.4641317" lon="11.8613183"><ele>249.0</ele><time>2026-05-01T06:40:49.786Z</time></trkpt><trkpt lat="43.4641483" lon="11.8614983"><ele>249.0</ele><time>2026-05-01T06:40:50.786Z</time></trkpt><trkpt lat="43.46416" lon="11.861665"><ele>249.0</ele><time>2026-05-01T06:40:51.786Z</time></trkpt><trkpt lat="43.46417" lon="11.8618183"><ele>249.0</ele><time>2026-05-01T06:40:52.787Z</time></trkpt><trkpt lat="43.4641817" lon="11.8619617"><ele>249.2</ele><time>2026-05-01T06:40:53.787Z</time></trkpt><trkpt lat="43.464195" lon="11.8620983"><ele>249.39999999999998</ele><time>2026-05-01T06:40:54.787Z</time></trkpt><trkpt lat="43.4642083" lon="11.8622283"><ele>249.6</ele><time>2026-05-01T06:40:55.786Z</time></trkpt><trkpt lat="43.4642183" lon="11.86235"><ele>249.8</ele><time>2026-05-01T06:40:56.787Z</time></trkpt><trkpt lat="43.4642283" lon="11.8624733"><ele>250.0</ele><time>2026-05-01T06:40:57.787Z</time></trkpt><trkpt lat="43.4642417" lon="11.8625983"><ele>250.0</ele><time>2026-05-01T06:40:58.79Z</time></trkpt><trkpt lat="43.464255" lon="11.86273"><ele>250.0</ele><time>2026-05-01T06:40:59.79Z</time></trkpt><trkpt lat="43.4642717" lon="11.86287"><ele>250.0</ele><time>2026-05-01T06:41:00.786Z</time></trkpt><trkpt lat="43.464285" lon="11.8630133"><ele>250.0</ele><time>2026-05-01T06:41:01.786Z</time></trkpt><trkpt lat="43.4642983" lon="11.8631483"><ele>250.0</ele><time>2026-05-01T06:41:02.787Z</time></trkpt><trkpt lat="43.4643117" lon="11.8632717"><ele>249.99999999999997</ele><time>2026-05-01T06:41:03.787Z</time></trkpt><trkpt lat="43.464325" lon="11.8633933"><ele>250.0</ele><time>2026-05-01T06:41:04.787Z</time></trkpt><trkpt lat="43.4643367" lon="11.863515"><ele>250.0</ele><time>2026-05-01T06:41:05.788Z</time></trkpt><trkpt lat="43.4643483" lon="11.8636283"><ele>250.0</ele><time>2026-05-01T06:41:06.786Z</time></trkpt><trkpt lat="43.464355" lon="11.8637267"><ele>249.99999999999997</ele><time>2026-05-01T06:41:07.786Z</time></trkpt><trkpt lat="43.4643683" lon="11.8638683"><ele>250.0</ele><time>2026-05-01T06:41:09.787Z</time></trkpt><trkpt lat="43.4643817" lon="11.863995"><ele>250.25</ele><time>2026-05-01T06:41:11.787Z</time></trkpt><trkpt lat="43.4644117" lon="11.8641717"><ele>250.5</ele><time>2026-05-01T06:41:13.786Z</time></trkpt><trkpt lat="43.4644267" lon="11.8643033"><ele>250.75</ele><time>2026-05-01T06:41:14.788Z</time></trkpt><trkpt lat="43.464435" lon="11.8644583"><ele>251.0</ele><time>2026-05-01T06:41:15.788Z</time></trkpt><trkpt lat="43.4644433" lon="11.8646367"><ele>250.33333333333334</ele><time>2026-05-01T06:41:16.787Z</time></trkpt><trkpt lat="43.4644567" lon="11.8648317"><ele>249.66666666666669</ele><time>2026-05-01T06:41:17.788Z</time></trkpt><trkpt lat="43.4644767" lon="11.86504"><ele>249.0</ele><time>2026-05-01T06:41:18.788Z</time></trkpt><trkpt lat="43.4644983" lon="11.8652567"><ele>249.0</ele><time>2026-05-01T06:41:19.787Z</time></trkpt><trkpt lat="43.4645183" lon="11.8654833"><ele>249.0</ele><time>2026-05-01T06:41:20.788Z</time></trkpt><trkpt lat="43.4645417" lon="11.8657167"><ele>249.0</ele><time>2026-05-01T06:41:21.786Z</time></trkpt><trkpt lat="43.4645667" lon="11.8659533"><ele>249.33333333333331</ele><time>2026-05-01T06:41:22.788Z</time></trkpt><trkpt lat="43.464585" lon="11.8661867"><ele>249.66666666666666</ele><time>2026-05-01T06:41:23.787Z</time></trkpt><trkpt lat="43.4646" lon="11.8664333"><ele>250.0</ele><time>2026-05-01T06:41:24.786Z</time></trkpt><trkpt lat="43.4646017" lon="11.866695"><ele>250.66666666666666</ele><time>2026-05-01T06:41:25.787Z</time></trkpt><trkpt lat="43.4645867" lon="11.8669683"><ele>251.33333333333331</ele><time>2026-05-01T06:41:26.787Z</time></trkpt><trkpt lat="43.4645617" lon="11.86724"><ele>252.0</ele><time>2026-05-01T06:41:27.787Z</time></trkpt><trkpt lat="43.4645333" lon="11.8675083"><ele>251.66666666666669</ele><time>2026-05-01T06:41:28.787Z</time></trkpt><trkpt lat="43.46451" lon="11.86777"><ele>251.33333333333334</ele><time>2026-05-01T06:41:29.788Z</time></trkpt><trkpt lat="43.4644867" lon="11.868025"><ele>251.0</ele><time>2026-05-01T06:41:30.786Z</time></trkpt><trkpt lat="43.4644667" lon="11.8682683"><ele>251.0</ele><time>2026-05-01T06:41:31.787Z</time></trkpt><trkpt lat="43.4644417" lon="11.8685"><ele>251.0</ele><time>2026-05-01T06:41:32.787Z</time></trkpt><trkpt lat="43.4644117" lon="11.868715"><ele>251.0</ele><time>2026-05-01T06:41:33.787Z</time></trkpt><trkpt lat="43.464385" lon="11.86891"><ele>251.0</ele><time>2026-05-01T06:41:34.787Z</time></trkpt><trkpt lat="43.464355" lon="11.8690867"><ele>251.00000000000003</ele><time>2026-05-01T06:41:35.788Z</time></trkpt><trkpt lat="43.4643183" lon="11.8692467"><ele>251.00000000000003</ele><time>2026-05-01T06:41:36.786Z</time></trkpt><trkpt lat="43.4642817" lon="11.8693817"><ele>251.0</ele><time>2026-05-01T06:41:37.785Z</time></trkpt><trkpt lat="43.464265" lon="11.8694967"><ele>251.0</ele><time>2026-05-01T06:41:38.788Z</time></trkpt><trkpt lat="43.46428" lon="11.869605"><ele>251.20000000000002</ele><time>2026-05-01T06:41:39.787Z</time></trkpt><trkpt lat="43.4643067" lon="11.8697167"><ele>251.40000000000003</ele><time>2026-05-01T06:41:40.789Z</time></trkpt><trkpt lat="43.4643383" lon="11.86983"><ele>251.6</ele><time>2026-05-01T06:41:41.787Z</time></trkpt><trkpt lat="43.4643717" lon="11.8699483"><ele>251.8</ele><time>2026-05-01T06:41:42.787Z</time></trkpt><trkpt lat="43.4644483" lon="11.8700683"><ele>252.0</ele><time>2026-05-01T06:41:43.786Z</time></trkpt><trkpt lat="43.4645283" lon="11.8701683"><ele>252.5</ele><time>2026-05-01T06:41:44.787Z</time></trkpt><trkpt lat="43.4645617" lon="11.870305"><ele>253.0</ele><time>2026-05-01T06:41:45.786Z</time></trkpt><trkpt lat="43.4646333" lon="11.8704467"><ele>253.5</ele><time>2026-05-01T06:41:46.79Z</time></trkpt><trkpt lat="43.4646867" lon="11.8706033"><ele>254.0</ele><time>2026-05-01T06:41:47.786Z</time></trkpt><trkpt lat="43.464785" lon="11.87073"><ele>254.0</ele><time>2026-05-01T06:41:48.785Z</time></trkpt><trkpt lat="43.4649" lon="11.8708417"><ele>254.0</ele><time>2026-05-01T06:41:49.786Z</time></trkpt><trkpt lat="43.464995" lon="11.8709667"><ele>254.0</ele><time>2026-05-01T06:41:50.789Z</time></trkpt><trkpt lat="43.465065" lon="11.8711233"><ele>254.0</ele><time>2026-05-01T06:41:51.786Z</time></trkpt><trkpt lat="43.4651017" lon="11.871305"><ele>254.0</ele><time>2026-05-01T06:41:52.788Z</time></trkpt><trkpt lat="43.4651233" lon="11.8715133"><ele>254.0</ele><time>2026-05-01T06:41:53.787Z</time></trkpt><trkpt lat="43.4651433" lon="11.8717383"><ele>254.0</ele><time>2026-05-01T06:41:54.787Z</time></trkpt><trkpt lat="43.4651633" lon="11.8719517"><ele>254.0</ele><time>2026-05-01T06:41:55.785Z</time></trkpt><trkpt lat="43.4651767" lon="11.8721533"><ele>254.0</ele><time>2026-05-01T06:41:56.789Z</time></trkpt><trkpt lat="43.4651917" lon="11.8723333"><ele>254.0</ele><time>2026-05-01T06:41:57.789Z</time></trkpt><trkpt lat="43.46521" lon="11.8725"><ele>254.0</ele><time>2026-05-01T06:41:58.789Z</time></trkpt><trkpt lat="43.4652233" lon="11.8726567"><ele>254.0</ele><time>2026-05-01T06:41:59.788Z</time></trkpt><trkpt lat="43.465235" lon="11.8728017"><ele>253.99999999999997</ele><time>2026-05-01T06:42:00.79Z</time></trkpt><trkpt lat="43.4652533" lon="11.87294"><ele>253.99999999999997</ele><time>2026-05-01T06:42:01.788Z</time></trkpt><trkpt lat="43.4652717" lon="11.8730817"><ele>254.0</ele><time>2026-05-01T06:42:02.788Z</time></trkpt><trkpt lat="43.4652867" lon="11.87324"><ele>254.0</ele><time>2026-05-01T06:42:03.787Z</time></trkpt><trkpt lat="43.4653017" lon="11.8734117"><ele>254.25</ele><time>2026-05-01T06:42:04.786Z</time></trkpt><trkpt lat="43.4653167" lon="11.8735933"><ele>254.5</ele><time>2026-05-01T06:42:05.786Z</time></trkpt><trkpt lat="43.4653283" lon="11.8737767"><ele>254.75</ele><time>2026-05-01T06:42:06.787Z</time></trkpt><trkpt lat="43.465335" lon="11.8739433"><ele>255.0</ele><time>2026-05-01T06:42:07.786Z</time></trkpt><trkpt lat="43.4653333" lon="11.8741017"><ele>255.0</ele><time>2026-05-01T06:42:08.786Z</time></trkpt><trkpt lat="43.4653233" lon="11.8742483"><ele>255.0</ele><time>2026-05-01T06:42:09.786Z</time></trkpt><trkpt lat="43.4653133" lon="11.8743933"><ele>255.0</ele><time>2026-05-01T06:42:10.788Z</time></trkpt><trkpt lat="43.4653033" lon="11.874545"><ele>255.0</ele><time>2026-05-01T06:42:11.787Z</time></trkpt><trkpt lat="43.4652817" lon="11.874705"><ele>255.0</ele><time>2026-05-01T06:42:12.786Z</time></trkpt><trkpt lat="43.4652517" lon="11.87485"><ele>255.6</ele><time>2026-05-01T06:42:13.787Z</time></trkpt><trkpt lat="43.4652083" lon="11.874965"><ele>256.2</ele><time>2026-05-01T06:42:14.789Z</time></trkpt><trkpt lat="43.4651683" lon="11.87507"><ele>256.8</ele><time>2026-05-01T06:42:15.785Z</time></trkpt><trkpt lat="43.4651317" lon="11.8751583"><ele>257.4</ele><time>2026-05-01T06:42:16.787Z</time></trkpt><trkpt lat="43.4650967" lon="11.8752317"><ele>258.0</ele><time>2026-05-01T06:42:17.786Z</time></trkpt><trkpt lat="43.465015" lon="11.875375"><ele>258.5</ele><time>2026-05-01T06:42:19.785Z</time></trkpt><trkpt lat="43.46495" lon="11.8754717"><ele>259.0</ele><time>2026-05-01T06:42:20.786Z</time></trkpt><trkpt lat="43.46487" lon="11.8756167"><ele>259.5</ele><time>2026-05-01T06:42:21.785Z</time></trkpt><trkpt lat="43.4647783" lon="11.875765"><ele>260.0</ele><time>2026-05-01T06:42:22.787Z</time></trkpt><trkpt lat="43.4646817" lon="11.87591"><ele>260.25</ele><time>2026-05-01T06:42:23.788Z</time></trkpt><trkpt lat="43.4645817" lon="11.8760567"><ele>260.5</ele><time>2026-05-01T06:42:24.786Z</time></trkpt><trkpt lat="43.4644917" lon="11.8761933"><ele>260.75</ele><time>2026-05-01T06:42:25.787Z</time></trkpt><trkpt lat="43.4644" lon="11.87633"><ele>261.0</ele><time>2026-05-01T06:42:26.786Z</time></trkpt><trkpt lat="43.464315" lon="11.8764683"><ele>261.0</ele><time>2026-05-01T06:42:27.786Z</time></trkpt><trkpt lat="43.4642367" lon="11.8766017"><ele>261.0</ele><time>2026-05-01T06:42:28.786Z</time></trkpt><trkpt lat="43.4641533" lon="11.8767167"><ele>261.0</ele><time>2026-05-01T06:42:29.787Z</time></trkpt><trkpt lat="43.464075" lon="11.87681"><ele>261.0</ele><time>2026-05-01T06:42:30.785Z</time></trkpt><trkpt lat="43.4640033" lon="11.8769"><ele>261.0</ele><time>2026-05-01T06:42:31.786Z</time></trkpt><trkpt lat="43.46393" lon="11.8769833"><ele>260.5</ele><time>2026-05-01T06:42:32.787Z</time></trkpt><trkpt lat="43.463855" lon="11.8770833"><ele>260.0</ele><time>2026-05-01T06:42:33.789Z</time></trkpt><trkpt lat="43.4637683" lon="11.8772017"><ele>259.5</ele><time>2026-05-01T06:42:34.788Z</time></trkpt><trkpt lat="43.4636767" lon="11.8773317"><ele>259.0</ele><time>2026-05-01T06:42:35.787Z</time></trkpt><trkpt lat="43.4635967" lon="11.8774567"><ele>259.8333333333333</ele><time>2026-05-01T06:42:36.785Z</time></trkpt><trkpt lat="43.4635283" lon="11.8775683"><ele>260.66666666666663</ele><time>2026-05-01T06:42:37.786Z</time></trkpt><trkpt lat="43.46347" lon="11.87766"><ele>261.5</ele><time>2026-05-01T06:42:38.786Z</time></trkpt><trkpt lat="43.4634183" lon="11.8777267"><ele>262.3333333333333</ele><time>2026-05-01T06:42:39.786Z</time></trkpt><trkpt lat="43.4633567" lon="11.877765"><ele>263.1666666666667</ele><time>2026-05-01T06:42:40.786Z</time></trkpt><trkpt lat="43.4632883" lon="11.8777783"><ele>264.0</ele><time>2026-05-01T06:42:41.788Z</time></trkpt><trkpt lat="43.463195" lon="11.87776"><ele>264.0</ele><time>2026-05-01T06:42:42.786Z</time></trkpt><trkpt lat="43.4631083" lon="11.877765"><ele>264.0</ele><time>2026-05-01T06:42:43.786Z</time></trkpt><trkpt lat="43.4630283" lon="11.8777917"><ele>264.0</ele><time>2026-05-01T06:42:44.786Z</time></trkpt><trkpt lat="43.462955" lon="11.877835"><ele>264.0</ele><time>2026-05-01T06:42:45.786Z</time></trkpt><trkpt lat="43.46291" lon="11.877905"><ele>264.0</ele><time>2026-05-01T06:42:46.786Z</time></trkpt><trkpt lat="43.4628667" lon="11.8779867"><ele>264.0</ele><time>2026-05-01T06:42:47.786Z</time></trkpt><trkpt lat="43.4628433" lon="11.878075"><ele>264.0</ele><time>2026-05-01T06:42:48.785Z</time></trkpt><trkpt lat="43.4628317" lon="11.8781683"><ele>264.0</ele><time>2026-05-01T06:42:49.786Z</time></trkpt><trkpt lat="43.46283" lon="11.8782733"><ele>264.0</ele><time>2026-05-01T06:42:50.786Z</time></trkpt><trkpt lat="43.462855" lon="11.87841"><ele>264.0</ele><time>2026-05-01T06:42:51.786Z</time></trkpt><trkpt lat="43.4628783" lon="11.8785467"><ele>264.0</ele><time>2026-05-01T06:42:52.786Z</time></trkpt><trkpt lat="43.462885" lon="11.8786617"><ele>264.0</ele><time>2026-05-01T06:42:53.786Z</time></trkpt><trkpt lat="43.46289" lon="11.8787583"><ele>264.4</ele><time>2026-05-01T06:42:54.785Z</time></trkpt><trkpt lat="43.46275" lon="11.8787417"><ele>264.79999999999995</ele><time>2026-05-01T06:43:21.786Z</time></trkpt><trkpt lat="43.4627083" lon="11.8788217"><ele>265.20000000000005</ele><time>2026-05-01T06:43:24.786Z</time></trkpt><trkpt lat="43.4626583" lon="11.8788933"><ele>265.6</ele><time>2026-05-01T06:43:25.786Z</time></trkpt><trkpt lat="43.46261" lon="11.87898"><ele>266.0</ele><time>2026-05-01T06:43:26.789Z</time></trkpt><trkpt lat="43.46255" lon="11.8790783"><ele>266.0</ele><time>2026-05-01T06:43:27.789Z</time></trkpt><trkpt lat="43.4624667" lon="11.8791917"><ele>266.0</ele><time>2026-05-01T06:43:28.787Z</time></trkpt><trkpt lat="43.4623917" lon="11.8793083"><ele>266.0</ele><time>2026-05-01T06:43:29.793Z</time></trkpt><trkpt lat="43.4623217" lon="11.8794267"><ele>266.0</ele><time>2026-05-01T06:43:30.786Z</time></trkpt><trkpt lat="43.4622383" lon="11.8795467"><ele>266.0</ele><time>2026-05-01T06:43:31.786Z</time></trkpt><trkpt lat="43.46215" lon="11.8796717"><ele>266.0</ele><time>2026-05-01T06:43:32.786Z</time></trkpt><trkpt lat="43.4620633" lon="11.8797967"><ele>266.0</ele><time>2026-05-01T06:43:33.787Z</time></trkpt><trkpt lat="43.4619817" lon="11.8799217"><ele>266.0</ele><time>2026-05-01T06:43:34.786Z</time></trkpt><trkpt lat="43.4618933" lon="11.8800467"><ele>265.5</ele><time>2026-05-01T06:43:35.786Z</time></trkpt><trkpt lat="43.4618067" lon="11.8801683"><ele>265.0</ele><time>2026-05-01T06:43:36.786Z</time></trkpt><trkpt lat="43.46172" lon="11.8803"><ele>264.5</ele><time>2026-05-01T06:43:37.787Z</time></trkpt><trkpt lat="43.4616417" lon="11.8804317"><ele>264.0</ele><time>2026-05-01T06:43:38.786Z</time></trkpt><trkpt lat="43.461565" lon="11.88056"><ele>264.0</ele><time>2026-05-01T06:43:39.786Z</time></trkpt><trkpt lat="43.4614983" lon="11.880685"><ele>264.0</ele><time>2026-05-01T06:43:40.786Z</time></trkpt><trkpt lat="43.4614317" lon="11.8808033"><ele>264.0</ele><time>2026-05-01T06:43:41.786Z</time></trkpt><trkpt lat="43.46137" lon="11.8809083"><ele>264.0</ele><time>2026-05-01T06:43:42.786Z</time></trkpt><trkpt lat="43.4613233" lon="11.8810133"><ele>264.0</ele><time>2026-05-01T06:43:43.786Z</time></trkpt><trkpt lat="43.4612717" lon="11.8811033"><ele>264.0</ele><time>2026-05-01T06:43:44.787Z</time></trkpt><trkpt lat="43.4612167" lon="11.8811933"><ele>264.0</ele><time>2026-05-01T06:43:45.79Z</time></trkpt><trkpt lat="43.46116" lon="11.8813017"><ele>264.0</ele><time>2026-05-01T06:43:46.786Z</time></trkpt><trkpt lat="43.46109" lon="11.88142"><ele>264.0</ele><time>2026-05-01T06:43:47.788Z</time></trkpt><trkpt lat="43.4610083" lon="11.8815533"><ele>264.0</ele><time>2026-05-01T06:43:48.789Z</time></trkpt><trkpt lat="43.460915" lon="11.8816917"><ele>263.75</ele><time>2026-05-01T06:43:49.786Z</time></trkpt><trkpt lat="43.4608183" lon="11.8818367"><ele>263.5</ele><time>2026-05-01T06:43:50.786Z</time></trkpt><trkpt lat="43.4607167" lon="11.88199"><ele>263.25</ele><time>2026-05-01T06:43:51.79Z</time></trkpt><trkpt lat="43.4606133" lon="11.88214"><ele>263.0</ele><time>2026-05-01T06:43:52.787Z</time></trkpt><trkpt lat="43.46051" lon="11.88229"><ele>262.75</ele><time>2026-05-01T06:43:53.786Z</time></trkpt><trkpt lat="43.4604133" lon="11.8824333"><ele>262.5</ele><time>2026-05-01T06:43:54.785Z</time></trkpt><trkpt lat="43.46033" lon="11.8825683"><ele>262.25</ele><time>2026-05-01T06:43:55.788Z</time></trkpt><trkpt lat="43.4602567" lon="11.88269"><ele>262.0</ele><time>2026-05-01T06:43:56.787Z</time></trkpt><trkpt lat="43.4601933" lon="11.8827967"><ele>262.0</ele><time>2026-05-01T06:43:57.786Z</time></trkpt><trkpt lat="43.4601433" lon="11.8828917"><ele>262.0</ele><time>2026-05-01T06:43:58.786Z</time></trkpt><trkpt lat="43.4601017" lon="11.88297"><ele>262.0</ele><time>2026-05-01T06:43:59.789Z</time></trkpt><trkpt lat="43.4600417" lon="11.88307"><ele>262.0</ele><time>2026-05-01T06:44:01.786Z</time></trkpt><trkpt lat="43.459985" lon="11.8831383"><ele>262.0</ele><time>2026-05-01T06:44:15.786Z</time></trkpt><trkpt lat="43.4599533" lon="11.883225"><ele>262.0</ele><time>2026-05-01T06:44:16.787Z</time></trkpt><trkpt lat="43.4599183" lon="11.8833567"><ele>262.0</ele><time>2026-05-01T06:44:17.79Z</time></trkpt><trkpt lat="43.4599117" lon="11.8835233"><ele>262.0</ele><time>2026-05-01T06:44:18.786Z</time></trkpt><trkpt lat="43.4599217" lon="11.8836917"><ele>262.0</ele><time>2026-05-01T06:44:19.789Z</time></trkpt><trkpt lat="43.4599417" lon="11.88387"><ele>262.0</ele><time>2026-05-01T06:44:20.786Z</time></trkpt><trkpt lat="43.4599567" lon="11.8840717"><ele>262.66666666666663</ele><time>2026-05-01T06:44:21.786Z</time></trkpt><trkpt lat="43.4599767" lon="11.8842783"><ele>263.3333333333333</ele><time>2026-05-01T06:44:22.787Z</time></trkpt><trkpt lat="43.4600067" lon="11.8844967"><ele>264.0</ele><time>2026-05-01T06:44:23.79Z</time></trkpt><trkpt lat="43.460035" lon="11.8847183"><ele>264.0</ele><time>2026-05-01T06:44:24.789Z</time></trkpt><trkpt lat="43.4600633" lon="11.8849383"><ele>264.0</ele><time>2026-05-01T06:44:25.787Z</time></trkpt><trkpt lat="43.4600883" lon="11.88515"><ele>264.0</ele><time>2026-05-01T06:44:26.786Z</time></trkpt><trkpt lat="43.4601133" lon="11.8853533"><ele>264.25</ele><time>2026-05-01T06:44:27.787Z</time></trkpt><trkpt lat="43.46014" lon="11.8855567"><ele>264.5</ele><time>2026-05-01T06:44:28.786Z</time></trkpt><trkpt lat="43.4601633" lon="11.88575"><ele>264.75</ele><time>2026-05-01T06:44:29.787Z</time></trkpt><trkpt lat="43.460195" lon="11.88594"><ele>265.0</ele><time>2026-05-01T06:44:30.786Z</time></trkpt><trkpt lat="43.4602217" lon="11.8861317"><ele>264.6</ele><time>2026-05-01T06:44:31.787Z</time></trkpt><trkpt lat="43.46024" lon="11.886295"><ele>264.2</ele><time>2026-05-01T06:44:32.789Z</time></trkpt><trkpt lat="43.4602583" lon="11.8864417"><ele>263.8</ele><time>2026-05-01T06:44:33.787Z</time></trkpt><trkpt lat="43.4602717" lon="11.886575"><ele>263.4</ele><time>2026-05-01T06:44:34.788Z</time></trkpt><trkpt lat="43.460295" lon="11.8866983"><ele>263.0</ele><time>2026-05-01T06:44:35.786Z</time></trkpt><trkpt lat="43.4603167" lon="11.886805"><ele>263.0</ele><time>2026-05-01T06:44:36.788Z</time></trkpt><trkpt lat="43.4603533" lon="11.8868883"><ele>263.0</ele><time>2026-05-01T06:44:37.786Z</time></trkpt><trkpt lat="43.460415" lon="11.8869483"><ele>263.0</ele><time>2026-05-01T06:44:38.788Z</time></trkpt><trkpt lat="43.4604883" lon="11.8869867"><ele>263.0</ele><time>2026-05-01T06:44:39.786Z</time></trkpt><trkpt lat="43.4605633" lon="11.8870217"><ele>263.0</ele><time>2026-05-01T06:44:40.792Z</time></trkpt><trkpt lat="43.4606367" lon="11.88705"><ele>263.0</ele><time>2026-05-01T06:44:41.787Z</time></trkpt><trkpt lat="43.46071" lon="11.8870783"><ele>263.33333333333337</ele><time>2026-05-01T06:44:42.788Z</time></trkpt><trkpt lat="43.46078" lon="11.8871117"><ele>263.6666666666667</ele><time>2026-05-01T06:44:43.787Z</time></trkpt><trkpt lat="43.460845" lon="11.8871583"><ele>264.0</ele><time>2026-05-01T06:44:44.786Z</time></trkpt><trkpt lat="43.4609033" lon="11.8872167"><ele>264.3333333333333</ele><time>2026-05-01T06:44:45.786Z</time></trkpt><trkpt lat="43.4609533" lon="11.88729"><ele>264.66666666666663</ele><time>2026-05-01T06:44:46.787Z</time></trkpt><trkpt lat="43.4609983" lon="11.88738"><ele>265.0</ele><time>2026-05-01T06:44:47.789Z</time></trkpt><trkpt lat="43.4610417" lon="11.887475"><ele>265.0</ele><time>2026-05-01T06:44:48.787Z</time></trkpt><trkpt lat="43.4610767" lon="11.8875733"><ele>265.0</ele><time>2026-05-01T06:44:49.789Z</time></trkpt><trkpt lat="43.4611083" lon="11.8876717"><ele>265.0</ele><time>2026-05-01T06:44:50.786Z</time></trkpt><trkpt lat="43.461135" lon="11.8877767"><ele>265.0</ele><time>2026-05-01T06:44:51.786Z</time></trkpt><trkpt lat="43.4611633" lon="11.887885"><ele>265.0</ele><time>2026-05-01T06:44:52.786Z</time></trkpt><trkpt lat="43.4611833" lon="11.887995"><ele>265.0</ele><time>2026-05-01T06:44:53.786Z</time></trkpt><trkpt lat="43.4612" lon="11.8881017"><ele>265.0</ele><time>2026-05-01T06:44:54.786Z</time></trkpt><trkpt lat="43.46121" lon="11.8881933"><ele>265.0</ele><time>2026-05-01T06:44:55.786Z</time></trkpt><trkpt lat="43.46123" lon="11.8883233"><ele>265.0</ele><time>2026-05-01T06:44:57.786Z</time></trkpt><trkpt lat="43.461235" lon="11.8884367"><ele>265.0</ele><time>2026-05-01T06:44:59.786Z</time></trkpt><trkpt lat="43.4612433" lon="11.8885733"><ele>265.0</ele><time>2026-05-01T06:45:01.787Z</time></trkpt><trkpt lat="43.46125" lon="11.8886617"><ele>265.0</ele><time>2026-05-01T06:45:02.787Z</time></trkpt><trkpt lat="43.4612583" lon="11.888765"><ele>265.0</ele><time>2026-05-01T06:45:03.787Z</time></trkpt><trkpt lat="43.461265" lon="11.8888783"><ele>265.0</ele><time>2026-05-01T06:45:04.786Z</time></trkpt><trkpt lat="43.461265" lon="11.889"><ele>265.0</ele><time>2026-05-01T06:45:05.788Z</time></trkpt><trkpt lat="43.4612533" lon="11.889135"><ele>265.0</ele><time>2026-05-01T06:45:06.789Z</time></trkpt><trkpt lat="43.4612417" lon="11.889285"><ele>265.0</ele><time>2026-05-01T06:45:07.789Z</time></trkpt><trkpt lat="43.4612233" lon="11.889445"><ele>264.66666666666663</ele><time>2026-05-01T06:45:08.789Z</time></trkpt><trkpt lat="43.4612033" lon="11.889625"><ele>264.3333333333333</ele><time>2026-05-01T06:45:09.791Z</time></trkpt><trkpt lat="43.4611733" lon="11.8898367"><ele>264.0</ele><time>2026-05-01T06:45:10.789Z</time></trkpt><trkpt lat="43.46113" lon="11.8900683"><ele>264.3333333333333</ele><time>2026-05-01T06:45:11.787Z</time></trkpt><trkpt lat="43.4610783" lon="11.89031"><ele>264.66666666666663</ele><time>2026-05-01T06:45:12.787Z</time></trkpt><trkpt lat="43.461025" lon="11.8905667"><ele>265.0</ele><time>2026-05-01T06:45:13.786Z</time></trkpt><trkpt lat="43.4609783" lon="11.8908233"><ele>265.3333333333333</ele><time>2026-05-01T06:45:14.788Z</time></trkpt><trkpt lat="43.4609367" lon="11.8910717"><ele>265.6666666666667</ele><time>2026-05-01T06:45:15.787Z</time></trkpt><trkpt lat="43.4608933" lon="11.8913133"><ele>266.0</ele><time>2026-05-01T06:45:16.788Z</time></trkpt><trkpt lat="43.4608517" lon="11.89156"><ele>266.0</ele><time>2026-05-01T06:45:17.786Z</time></trkpt><trkpt lat="43.46081" lon="11.8918067"><ele>266.0</ele><time>2026-05-01T06:45:18.786Z</time></trkpt><trkpt lat="43.4607683" lon="11.8920567"><ele>266.0</ele><time>2026-05-01T06:45:19.788Z</time></trkpt><trkpt lat="43.460725" lon="11.892305"><ele>266.0</ele><time>2026-05-01T06:45:20.787Z</time></trkpt><trkpt lat="43.4606867" lon="11.8925483"><ele>266.0</ele><time>2026-05-01T06:45:21.786Z</time></trkpt><trkpt lat="43.46065" lon="11.892775"><ele>266.0</ele><time>2026-05-01T06:45:22.787Z</time></trkpt><trkpt lat="43.4606183" lon="11.892985"><ele>265.8</ele><time>2026-05-01T06:45:23.787Z</time></trkpt><trkpt lat="43.4605883" lon="11.8931733"><ele>265.6</ele><time>2026-05-01T06:45:24.787Z</time></trkpt><trkpt lat="43.460565" lon="11.8933383"><ele>265.4</ele><time>2026-05-01T06:45:25.787Z</time></trkpt><trkpt lat="43.4605367" lon="11.8934733"><ele>265.2</ele><time>2026-05-01T06:45:26.788Z</time></trkpt><trkpt lat="43.4605133" lon="11.893585"><ele>265.0</ele><time>2026-05-01T06:45:27.787Z</time></trkpt><trkpt lat="43.460495" lon="11.89367"><ele>265.0</ele><time>2026-05-01T06:45:28.786Z</time></trkpt><trkpt lat="43.4604683" lon="11.8937733"><ele>265.0</ele><time>2026-05-01T06:45:30.786Z</time></trkpt></trkseg></trk></gpx>